logo
Search for airport 
image banner adimage banner adimage banner ad
image banner ad

YWYY - Wynyard

Located in Wynyard, Australia

ICAO - YWYY, IATA - BWT

Data provided by Airmate  

General information

Coordinates: S40°59'56" E145°43'52"
Elevation is 62 feet MSL.
 
View others Airports in Tasmania

Operational data

Special qualification required
Current time UTC:
Current local time:
Weather at : - ( 0 km )
METAR: KQFX 180010Z AUTO 26002KT 9999 CLR 19/13 A3008 RMK A02 TSNO
View NOTAMs / SUP AIP / TFR affecting this airport [VIEW]
Communications frequencies: [VIEW]

Runways:

RWY identifierQFULength (ft)Width (ft)SurfaceLDA (ft)
0565°271359GVL
23245°271359GVL
0999°541398ASP
27279°541398ASP

Airport contact information

Address: Wynyard Australia

Satellite view of YWYY